sensor_id;sensor_type;location;lat;lon;timestamp;temperature;humidity
27795;DHT22;15176;50.844;4.412;2023-05-18T00:02:04;13.10;99.90
27795;DHT22;15176;50.844;4.412;2023-05-18T00:04:35;13.10;99.90
27795;DHT22;15176;50.844;4.412;2023-05-18T00:07:02;13.20;99.90
27795;DHT22;15176;50.844;4.412;2023-05-18T00:09:33;13.10;99.90
27795;DHT22;15176;50.844;4.412;2023-05-18T00:12:00;13.00;99.90
27795;DHT22;15176;50.844;4.412;2023-05-18T00:14:26;13.20;99.90
27795;DHT22;15176;50.844;4.412;2023-05-18T00:16:55;13.10;99.90
27795;DHT22;15176;50.844;4.412;2023-05-18T00:19:23;12.80;99.90
27795;DHT22;15176;50.844;4.412;2023-05-18T00:21:50;12.80;99.90
27795;DHT22;15176;50.844;4.412;2023-05-18T00:24:17;12.60;99.90
27795;DHT22;15176;50.844;4.412;2023-05-18T00:26:46;12.90;99.90
27795;DHT22;15176;50.844;4.412;2023-05-18T00:29:12;13.00;99.90
27795;DHT22;15176;50.844;4.412;2023-05-18T00:31:38;12.80;99.90
27795;DHT22;15176;50.844;4.412;2023-05-18T00:34:05;12.70;99.90
27795;DHT22;15176;50.844;4.412;2023-05-18T00:36:31;12.70;99.90
27795;DHT22;15176;50.844;4.412;2023-05-18T00:38:57;12.70;99.90
27795;DHT22;15176;50.844;4.412;2023-05-18T00:41:24;12.90;99.90
27795;DHT22;15176;50.844;4.412;2023-05-18T00:43:51;12.80;99.90
27795;DHT22;15176;50.844;4.412;2023-05-18T00:46:16;12.80;99.90
27795;DHT22;15176;50.844;4.412;2023-05-18T00:48:42;12.50;99.90
27795;DHT22;15176;50.844;4.412;2023-05-18T00:51:08;12.50;99.90
27795;DHT22;15176;50.844;4.412;2023-05-18T00:53:35;12.50;99.90
27795;DHT22;15176;50.844;4.412;2023-05-18T00:56:02;12.40;99.90
27795;DHT22;15176;50.844;4.412;2023-05-18T00:58:28;12.30;99.90
27795;DHT22;15176;50.844;4.412;2023-05-18T01:00:54;12.30;99.90
27795;DHT22;15176;50.844;4.412;2023-05-18T01:03:19;12.40;99.90
27795;DHT22;15176;50.844;4.412;2023-05-18T01:05:48;12.10;99.90
27795;DHT22;15176;50.844;4.412;2023-05-18T01:08:17;12.10;99.90
27795;DHT22;15176;50.844;4.412;2023-05-18T01:10:45;12.40;99.90
27795;DHT22;15176;50.844;4.412;2023-05-18T01:13:22;12.30;99.90
27795;DHT22;15176;50.844;4.412;2023-05-18T01:15:53;12.10;99.90
27795;DHT22;15176;50.844;4.412;2023-05-18T01:18:32;12.10;99.90
27795;DHT22;15176;50.844;4.412;2023-05-18T01:26:32;12.20;99.90
27795;DHT22;15176;50.844;4.412;2023-05-18T01:29:05;12.10;99.90
27795;DHT22;15176;50.844;4.412;2023-05-18T01:31:33;12.10;99.90
27795;DHT22;15176;50.844;4.412;2023-05-18T01:33:58;12.30;99.90
27795;DHT22;15176;50.844;4.412;2023-05-18T01:36:24;12.20;99.90
27795;DHT22;15176;50.844;4.412;2023-05-18T01:38:50;12.20;99.90
27795;DHT22;15176;50.844;4.412;2023-05-18T01:41:22;12.00;99.90
27795;DHT22;15176;50.844;4.412;2023-05-18T01:44:03;12.00;99.90
27795;DHT22;15176;50.844;4.412;2023-05-18T01:46:44;12.00;99.90
27795;DHT22;15176;50.844;4.412;2023-05-18T01:52:31;11.90;99.90
27795;DHT22;15176;50.844;4.412;2023-05-18T01:55:02;12.20;99.90
27795;DHT22;15176;50.844;4.412;2023-05-18T01:57:30;12.10;99.90
27795;DHT22;15176;50.844;4.412;2023-05-18T02:00:00;11.90;99.90
27795;DHT22;15176;50.844;4.412;2023-05-18T02:02:27;11.70;99.90
27795;DHT22;15176;50.844;4.412;2023-05-18T02:04:52;11.50;99.90
27795;DHT22;15176;50.844;4.412;2023-05-18T02:07:18;11.60;99.90
27795;DHT22;15176;50.844;4.412;2023-05-18T02:09:44;11.60;99.90
27795;DHT22;15176;50.844;4.412;2023-05-18T02:12:10;11.60;99.90
27795;DHT22;15176;50.844;4.412;2023-05-18T02:14:36;11.60;99.90
27795;DHT22;15176;50.844;4.412;2023-05-18T02:17:02;11.80;99.90
27795;DHT22;15176;50.844;4.412;2023-05-18T02:19:28;11.70;99.90
27795;DHT22;15176;50.844;4.412;2023-05-18T02:21:55;11.70;99.90
27795;DHT22;15176;50.844;4.412;2023-05-18T02:24:23;11.90;99.90
27795;DHT22;15176;50.844;4.412;2023-05-18T02:26:50;11.90;99.90
27795;DHT22;15176;50.844;4.412;2023-05-18T02:29:16;12.00;99.90
27795;DHT22;15176;50.844;4.412;2023-05-18T02:31:42;12.00;99.90
27795;DHT22;15176;50.844;4.412;2023-05-18T02:34:07;11.80;99.90
27795;DHT22;15176;50.844;4.412;2023-05-18T02:36:35;11.70;99.90
27795;DHT22;15176;50.844;4.412;2023-05-18T02:39:10;12.00;99.90
27795;DHT22;15176;50.844;4.412;2023-05-18T02:41:36;11.80;99.90
27795;DHT22;15176;50.844;4.412;2023-05-18T02:44:04;11.60;99.90
27795;DHT22;15176;50.844;4.412;2023-05-18T02:46:31;11.60;99.90
27795;DHT22;15176;50.844;4.412;2023-05-18T02:48:57;11.70;99.90
27795;DHT22;15176;50.844;4.412;2023-05-18T02:51:23;11.70;99.90
27795;DHT22;15176;50.844;4.412;2023-05-18T02:53:50;11.80;99.90
27795;DHT22;15176;50.844;4.412;2023-05-18T02:56:16;11.70;99.90
27795;DHT22;15176;50.844;4.412;2023-05-18T02:58:42;11.60;99.90
27795;DHT22;15176;50.844;4.412;2023-05-18T03:01:09;11.70;99.90
27795;DHT22;15176;50.844;4.412;2023-05-18T03:03:36;11.60;99.90
27795;DHT22;15176;50.844;4.412;2023-05-18T03:06:03;11.60;99.90
27795;DHT22;15176;50.844;4.412;2023-05-18T03:08:28;11.60;99.90
27795;DHT22;15176;50.844;4.412;2023-05-18T03:10:56;11.50;99.90
27795;DHT22;15176;50.844;4.412;2023-05-18T03:13:22;11.30;99.90
27795;DHT22;15176;50.844;4.412;2023-05-18T03:15:47;11.40;99.90
27795;DHT22;15176;50.844;4.412;2023-05-18T03:18:15;11.30;99.90
27795;DHT22;15176;50.844;4.412;2023-05-18T03:20:41;11.40;99.90
27795;DHT22;15176;50.844;4.412;2023-05-18T03:23:07;11.30;99.90
27795;DHT22;15176;50.844;4.412;2023-05-18T03:25:33;11.40;99.90
27795;DHT22;15176;50.844;4.412;2023-05-18T03:28:04;11.40;99.90
27795;DHT22;15176;50.844;4.412;2023-05-18T03:30:32;11.40;99.90
27795;DHT22;15176;50.844;4.412;2023-05-18T03:33:02;11.40;99.90
27795;DHT22;15176;50.844;4.412;2023-05-18T03:35:28;11.10;99.90
27795;DHT22;15176;50.844;4.412;2023-05-18T03:37:54;11.20;99.90
27795;DHT22;15176;50.844;4.412;2023-05-18T03:40:20;11.20;99.90
27795;DHT22;15176;50.844;4.412;2023-05-18T03:42:46;11.00;99.90
27795;DHT22;15176;50.844;4.412;2023-05-18T03:45:13;11.30;99.90
27795;DHT22;15176;50.844;4.412;2023-05-18T03:47:38;11.30;99.90
27795;DHT22;15176;50.844;4.412;2023-05-18T03:50:05;11.20;99.90
27795;DHT22;15176;50.844;4.412;2023-05-18T03:52:31;11.20;99.90
27795;DHT22;15176;50.844;4.412;2023-05-18T03:54:59;11.20;99.90
27795;DHT22;15176;50.844;4.412;2023-05-18T03:57:25;11.20;99.90
27795;DHT22;15176;50.844;4.412;2023-05-18T03:59:51;11.10;99.90
27795;DHT22;15176;50.844;4.412;2023-05-18T04:02:17;11.00;99.90
27795;DHT22;15176;50.844;4.412;2023-05-18T04:04:42;10.90;99.90
27795;DHT22;15176;50.844;4.412;2023-05-18T04:07:12;10.90;99.90
27795;DHT22;15176;50.844;4.412;2023-05-18T04:09:38;11.20;99.90
27795;DHT22;15176;50.844;4.412;2023-05-18T04:12:04;11.20;99.90
27795;DHT22;15176;50.844;4.412;2023-05-18T04:14:30;11.00;99.90
27795;DHT22;15176;50.844;4.412;2023-05-18T04:16:59;10.80;99.90
27795;DHT22;15176;50.844;4.412;2023-05-18T04:19:38;10.90;99.90
27795;DHT22;15176;50.844;4.412;2023-05-18T04:22:06;11.20;99.90
27795;DHT22;15176;50.844;4.412;2023-05-18T04:24:33;11.00;99.90
27795;DHT22;15176;50.844;4.412;2023-05-18T04:27:03;10.90;99.90
27795;DHT22;15176;50.844;4.412;2023-05-18T04:29:29;11.00;99.90
27795;DHT22;15176;50.844;4.412;2023-05-18T04:31:55;10.90;99.90
27795;DHT22;15176;50.844;4.412;2023-05-18T04:34:27;11.00;99.90
27795;DHT22;15176;50.844;4.412;2023-05-18T04:36:53;11.20;99.90
27795;DHT22;15176;50.844;4.412;2023-05-18T04:39:20;11.10;99.90
27795;DHT22;15176;50.844;4.412;2023-05-18T04:41:53;11.10;99.90
27795;DHT22;15176;50.844;4.412;2023-05-18T04:44:28;11.40;99.90
27795;DHT22;15176;50.844;4.412;2023-05-18T04:46:54;11.10;99.90
27795;DHT22;15176;50.844;4.412;2023-05-18T04:49:21;11.10;99.90
27795;DHT22;15176;50.844;4.412;2023-05-18T04:51:51;11.20;99.90
27795;DHT22;15176;50.844;4.412;2023-05-18T04:54:25;11.30;99.90
27795;DHT22;15176;50.844;4.412;2023-05-18T04:56:52;11.30;99.90
27795;DHT22;15176;50.844;4.412;2023-05-18T04:59:18;11.30;99.90
27795;DHT22;15176;50.844;4.412;2023-05-18T05:01:44;11.10;99.90
27795;DHT22;15176;50.844;4.412;2023-05-18T05:04:11;11.20;99.90
27795;DHT22;15176;50.844;4.412;2023-05-18T05:06:37;11.20;99.90
27795;DHT22;15176;50.844;4.412;2023-05-18T05:09:03;11.50;99.90
27795;DHT22;15176;50.844;4.412;2023-05-18T05:11:28;11.60;99.90
27795;DHT22;15176;50.844;4.412;2023-05-18T05:13:54;11.40;99.90
27795;DHT22;15176;50.844;4.412;2023-05-18T05:16:20;11.40;99.90
27795;DHT22;15176;50.844;4.412;2023-05-18T05:18:46;11.40;99.90
27795;DHT22;15176;50.844;4.412;2023-05-18T05:21:11;11.20;99.90
27795;DHT22;15176;50.844;4.412;2023-05-18T05:23:37;11.40;99.90
27795;DHT22;15176;50.844;4.412;2023-05-18T05:26:03;11.30;99.90
27795;DHT22;15176;50.844;4.412;2023-05-18T05:28:29;11.40;99.90
27795;DHT22;15176;50.844;4.412;2023-05-18T05:30:54;11.60;99.90
27795;DHT22;15176;50.844;4.412;2023-05-18T05:33:20;11.50;99.90
27795;DHT22;15176;50.844;4.412;2023-05-18T05:35:46;11.60;99.90
27795;DHT22;15176;50.844;4.412;2023-05-18T05:38:11;11.60;99.90
27795;DHT22;15176;50.844;4.412;2023-05-18T05:40:37;11.70;99.90
27795;DHT22;15176;50.844;4.412;2023-05-18T05:43:04;11.70;99.90
27795;DHT22;15176;50.844;4.412;2023-05-18T05:45:30;11.80;99.90
27795;DHT22;15176;50.844;4.412;2023-05-18T05:47:56;11.50;99.90
27795;DHT22;15176;50.844;4.412;2023-05-18T05:50:21;11.30;99.90
27795;DHT22;15176;50.844;4.412;2023-05-18T05:52:47;11.50;99.90
27795;DHT22;15176;50.844;4.412;2023-05-18T05:55:13;11.30;99.90
27795;DHT22;15176;50.844;4.412;2023-05-18T05:57:38;11.20;99.90
27795;DHT22;15176;50.844;4.412;2023-05-18T06:00:08;11.20;99.90
27795;DHT22;15176;50.844;4.412;2023-05-18T06:02:35;11.20;99.90
27795;DHT22;15176;50.844;4.412;2023-05-18T06:05:01;11.30;99.90
27795;DHT22;15176;50.844;4.412;2023-05-18T06:07:26;11.50;99.90
27795;DHT22;15176;50.844;4.412;2023-05-18T06:09:52;11.40;99.90
27795;DHT22;15176;50.844;4.412;2023-05-18T06:12:18;11.50;99.90
27795;DHT22;15176;50.844;4.412;2023-05-18T06:14:43;11.60;99.90
27795;DHT22;15176;50.844;4.412;2023-05-18T06:17:09;11.70;99.90
27795;DHT22;15176;50.844;4.412;2023-05-18T06:19:35;11.70;99.90
27795;DHT22;15176;50.844;4.412;2023-05-18T06:22:00;11.70;99.90
27795;DHT22;15176;50.844;4.412;2023-05-18T06:24:26;11.60;99.90
27795;DHT22;15176;50.844;4.412;2023-05-18T06:26:51;11.80;99.90
27795;DHT22;15176;50.844;4.412;2023-05-18T06:29:17;11.80;99.90
27795;DHT22;15176;50.844;4.412;2023-05-18T06:31:43;11.80;99.90
27795;DHT22;15176;50.844;4.412;2023-05-18T06:34:09;11.70;99.90
27795;DHT22;15176;50.844;4.412;2023-05-18T06:36:34;11.80;99.90
27795;DHT22;15176;50.844;4.412;2023-05-18T06:39:00;11.70;99.90
27795;DHT22;15176;50.844;4.412;2023-05-18T06:41:26;11.60;99.90
27795;DHT22;15176;50.844;4.412;2023-05-18T06:43:52;11.70;99.90
27795;DHT22;15176;50.844;4.412;2023-05-18T06:46:24;11.80;99.90
27795;DHT22;15176;50.844;4.412;2023-05-18T06:48:51;11.80;99.90
27795;DHT22;15176;50.844;4.412;2023-05-18T06:51:16;11.80;99.90
27795;DHT22;15176;50.844;4.412;2023-05-18T06:53:42;12.00;99.90
27795;DHT22;15176;50.844;4.412;2023-05-18T06:56:08;12.10;99.90
27795;DHT22;15176;50.844;4.412;2023-05-18T06:58:36;12.00;99.90
27795;DHT22;15176;50.844;4.412;2023-05-18T07:01:01;12.00;99.90
27795;DHT22;15176;50.844;4.412;2023-05-18T07:03:27;12.00;99.90
27795;DHT22;15176;50.844;4.412;2023-05-18T07:05:54;12.10;99.90
27795;DHT22;15176;50.844;4.412;2023-05-18T07:08:20;12.00;99.90
27795;DHT22;15176;50.844;4.412;2023-05-18T07:10:47;12.10;99.90
27795;DHT22;15176;50.844;4.412;2023-05-18T07:13:13;12.30;99.90
27795;DHT22;15176;50.844;4.412;2023-05-18T07:15:38;12.60;99.90
27795;DHT22;15176;50.844;4.412;2023-05-18T07:18:04;12.70;99.90
27795;DHT22;15176;50.844;4.412;2023-05-18T07:20:30;12.90;99.90
27795;DHT22;15176;50.844;4.412;2023-05-18T07:22:56;13.10;99.90
27795;DHT22;15176;50.844;4.412;2023-05-18T07:25:22;13.10;99.90
27795;DHT22;15176;50.844;4.412;2023-05-18T07:27:48;12.90;99.90
27795;DHT22;15176;50.844;4.412;2023-05-18T07:30:13;13.30;99.90
27795;DHT22;15176;50.844;4.412;2023-05-18T07:32:39;13.50;99.90
27795;DHT22;15176;50.844;4.412;2023-05-18T07:35:05;13.40;99.90
27795;DHT22;15176;50.844;4.412;2023-05-18T07:37:31;13.70;99.90
27795;DHT22;15176;50.844;4.412;2023-05-18T07:39:57;14.00;99.90
27795;DHT22;15176;50.844;4.412;2023-05-18T07:42:22;14.00;99.90
27795;DHT22;15176;50.844;4.412;2023-05-18T07:44:48;14.30;99.90
27795;DHT22;15176;50.844;4.412;2023-05-18T07:47:14;14.60;99.90
27795;DHT22;15176;50.844;4.412;2023-05-18T07:49:40;14.80;99.90
27795;DHT22;15176;50.844;4.412;2023-05-18T07:52:08;15.10;99.90
27795;DHT22;15176;50.844;4.412;2023-05-18T07:54:34;15.30;99.90
27795;DHT22;15176;50.844;4.412;2023-05-18T07:57:00;15.20;99.90
27795;DHT22;15176;50.844;4.412;2023-05-18T07:59:25;15.50;99.90
27795;DHT22;15176;50.844;4.412;2023-05-18T08:01:51;15.70;99.90
27795;DHT22;15176;50.844;4.412;2023-05-18T08:04:17;15.80;99.90
27795;DHT22;15176;50.844;4.412;2023-05-18T08:06:42;15.80;99.90
27795;DHT22;15176;50.844;4.412;2023-05-18T08:09:08;16.00;99.90
27795;DHT22;15176;50.844;4.412;2023-05-18T08:11:33;15.70;99.90
27795;DHT22;15176;50.844;4.412;2023-05-18T08:14:00;15.90;99.90
27795;DHT22;15176;50.844;4.412;2023-05-18T08:16:26;16.10;99.90
27795;DHT22;15176;50.844;4.412;2023-05-18T08:18:51;16.20;99.90
27795;DHT22;15176;50.844;4.412;2023-05-18T08:21:17;16.40;99.90
27795;DHT22;15176;50.844;4.412;2023-05-18T08:23:43;16.50;99.90
27795;DHT22;15176;50.844;4.412;2023-05-18T08:26:08;16.70;99.90
27795;DHT22;15176;50.844;4.412;2023-05-18T08:28:37;16.90;99.90
27795;DHT22;15176;50.844;4.412;2023-05-18T08:31:03;16.80;99.90
27795;DHT22;15176;50.844;4.412;2023-05-18T08:33:31;16.90;99.90
27795;DHT22;15176;50.844;4.412;2023-05-18T08:35:57;17.20;99.40
27795;DHT22;15176;50.844;4.412;2023-05-18T08:38:22;17.80;98.30
27795;DHT22;15176;50.844;4.412;2023-05-18T08:43:35;18.30;95.40
27795;DHT22;15176;50.844;4.412;2023-05-18T08:48:37;18.70;94.90
27795;DHT22;15176;50.844;4.412;2023-05-18T08:51:05;18.70;94.20
27795;DHT22;15176;50.844;4.412;2023-05-18T08:53:32;18.60;94.10
27795;DHT22;15176;50.844;4.412;2023-05-18T08:55:59;18.50;93.60
27795;DHT22;15176;50.844;4.412;2023-05-18T08:58:31;18.60;93.30
27795;DHT22;15176;50.844;4.412;2023-05-18T09:00:59;18.20;93.20
27795;DHT22;15176;50.844;4.412;2023-05-18T09:03:25;18.50;93.00
27795;DHT22;15176;50.844;4.412;2023-05-18T09:05:51;18.20;93.80
27795;DHT22;15176;50.844;4.412;2023-05-18T09:08:18;18.40;93.00
27795;DHT22;15176;50.844;4.412;2023-05-18T09:10:44;18.50;92.30
27795;DHT22;15176;50.844;4.412;2023-05-18T09:13:14;18.50;93.20
27795;DHT22;15176;50.844;4.412;2023-05-18T09:15:43;19.00;91.70
27795;DHT22;15176;50.844;4.412;2023-05-18T09:18:08;19.10;90.90
27795;DHT22;15176;50.844;4.412;2023-05-18T09:20:34;19.50;89.50
27795;DHT22;15176;50.844;4.412;2023-05-18T09:23:04;20.00;88.50
27795;DHT22;15176;50.844;4.412;2023-05-18T09:25:31;20.20;84.30
27795;DHT22;15176;50.844;4.412;2023-05-18T09:28:00;20.30;84.00
27795;DHT22;15176;50.844;4.412;2023-05-18T09:30:25;20.40;81.40
27795;DHT22;15176;50.844;4.412;2023-05-18T09:32:52;19.70;83.00
27795;DHT22;15176;50.844;4.412;2023-05-18T09:35:17;19.90;79.50
27795;DHT22;15176;50.844;4.412;2023-05-18T09:37:43;19.80;81.30
27795;DHT22;15176;50.844;4.412;2023-05-18T09:40:09;19.90;79.90
27795;DHT22;15176;50.844;4.412;2023-05-18T09:42:42;19.70;80.60
27795;DHT22;15176;50.844;4.412;2023-05-18T09:45:22;20.20;81.40
27795;DHT22;15176;50.844;4.412;2023-05-18T09:47:52;20.40;79.30
27795;DHT22;15176;50.844;4.412;2023-05-18T09:50:21;20.40;78.00
27795;DHT22;15176;50.844;4.412;2023-05-18T09:52:47;20.50;77.40
27795;DHT22;15176;50.844;4.412;2023-05-18T09:55:17;20.80;76.40
27795;DHT22;15176;50.844;4.412;2023-05-18T09:57:47;20.90;74.10
27795;DHT22;15176;50.844;4.412;2023-05-18T10:00:18;20.90;72.80
27795;DHT22;15176;50.844;4.412;2023-05-18T10:02:46;21.00;71.10
27795;DHT22;15176;50.844;4.412;2023-05-18T10:05:26;20.90;69.90
27795;DHT22;15176;50.844;4.412;2023-05-18T10:07:56;21.00;69.80
27795;DHT22;15176;50.844;4.412;2023-05-18T10:10:24;21.20;71.20
27795;DHT22;15176;50.844;4.412;2023-05-18T10:12:51;21.20;68.80
27795;DHT22;15176;50.844;4.412;2023-05-18T10:15:21;21.00;65.90
27795;DHT22;15176;50.844;4.412;2023-05-18T10:17:49;20.80;66.60
27795;DHT22;15176;50.844;4.412;2023-05-18T10:20:19;20.90;65.30
27795;DHT22;15176;50.844;4.412;2023-05-18T10:22:47;20.90;64.10
27795;DHT22;15176;50.844;4.412;2023-05-18T10:25:25;20.70;66.10
27795;DHT22;15176;50.844;4.412;2023-05-18T10:27:55;20.60;65.20
27795;DHT22;15176;50.844;4.412;2023-05-18T10:30:22;20.30;65.30
27795;DHT22;15176;50.844;4.412;2023-05-18T10:32:49;20.70;64.80
27795;DHT22;15176;50.844;4.412;2023-05-18T10:35:16;20.90;63.70
27795;DHT22;15176;50.844;4.412;2023-05-18T10:37:45;21.10;62.30
27795;DHT22;15176;50.844;4.412;2023-05-18T10:40:16;21.70;62.50
27795;DHT22;15176;50.844;4.412;2023-05-18T10:42:42;22.00;60.30
27795;DHT22;15176;50.844;4.412;2023-05-18T10:45:09;22.10;59.80
27795;DHT22;15176;50.844;4.412;2023-05-18T10:47:35;21.90;57.20
27795;DHT22;15176;50.844;4.412;2023-05-18T10:50:05;21.80;58.40
27795;DHT22;15176;50.844;4.412;2023-05-18T10:52:31;21.60;58.20
27795;DHT22;15176;50.844;4.412;2023-05-18T10:54:58;22.00;59.50
27795;DHT22;15176;50.844;4.412;2023-05-18T10:57:32;21.70;59.00
27795;DHT22;15176;50.844;4.412;2023-05-18T10:59:59;21.40;59.40
27795;DHT22;15176;50.844;4.412;2023-05-18T11:02:26;21.80;58.50
27795;DHT22;15176;50.844;4.412;2023-05-18T11:04:52;22.00;59.00
27795;DHT22;15176;50.844;4.412;2023-05-18T11:07:19;21.60;58.00
27795;DHT22;15176;50.844;4.412;2023-05-18T11:09:47;21.50;58.10
27795;DHT22;15176;50.844;4.412;2023-05-18T11:12:16;21.30;61.20
27795;DHT22;15176;50.844;4.412;2023-05-18T11:14:52;21.20;59.70
27795;DHT22;15176;50.844;4.412;2023-05-18T11:17:28;21.60;58.20
27795;DHT22;15176;50.844;4.412;2023-05-18T11:22:53;21.70;57.80
27795;DHT22;15176;50.844;4.412;2023-05-18T11:27:57;21.40;59.90
27795;DHT22;15176;50.844;4.412;2023-05-18T11:30:26;21.50;60.70
27795;DHT22;15176;50.844;4.412;2023-05-18T11:33:23;21.50;60.30
27795;DHT22;15176;50.844;4.412;2023-05-18T11:36:08;21.30;60.40
27795;DHT22;15176;50.844;4.412;2023-05-18T11:38:53;21.40;61.10
27795;DHT22;15176;50.844;4.412;2023-05-18T11:41:38;21.40;59.60
27795;DHT22;15176;50.844;4.412;2023-05-18T11:44:16;21.70;60.30
27795;DHT22;15176;50.844;4.412;2023-05-18T11:49:28;21.80;59.30
27795;DHT22;15176;50.844;4.412;2023-05-18T11:52:43;21.80;60.00
27795;DHT22;15176;50.844;4.412;2023-05-18T11:57:13;21.60;59.90
27795;DHT22;15176;50.844;4.412;2023-05-18T11:59:41;21.60;58.20
27795;DHT22;15176;50.844;4.412;2023-05-18T12:02:08;21.40;57.90
27795;DHT22;15176;50.844;4.412;2023-05-18T12:04:53;21.40;58.30
27795;DHT22;15176;50.844;4.412;2023-05-18T12:07:20;21.10;58.20
27795;DHT22;15176;50.844;4.412;2023-05-18T12:09:47;21.50;57.40
27795;DHT22;15176;50.844;4.412;2023-05-18T12:12:15;22.00;56.80
27795;DHT22;15176;50.844;4.412;2023-05-18T12:14:42;21.80;54.90
27795;DHT22;15176;50.844;4.412;2023-05-18T12:17:09;21.80;55.20
27795;DHT22;15176;50.844;4.412;2023-05-18T12:19:47;21.50;56.90
27795;DHT22;15176;50.844;4.412;2023-05-18T12:22:13;21.30;57.10
27795;DHT22;15176;50.844;4.412;2023-05-18T12:24:40;21.20;56.80
27795;DHT22;15176;50.844;4.412;2023-05-18T12:27:07;21.40;57.40
27795;DHT22;15176;50.844;4.412;2023-05-18T12:29:36;21.50;57.40
27795;DHT22;15176;50.844;4.412;2023-05-18T12:32:07;21.50;57.40
27795;DHT22;15176;50.844;4.412;2023-05-18T12:34:34;21.60;57.60
27795;DHT22;15176;50.844;4.412;2023-05-18T12:37:00;21.60;57.50
27795;DHT22;15176;50.844;4.412;2023-05-18T12:39:26;21.80;58.90
27795;DHT22;15176;50.844;4.412;2023-05-18T12:41:51;21.80;56.60
27795;DHT22;15176;50.844;4.412;2023-05-18T12:44:17;22.00;56.50
27795;DHT22;15176;50.844;4.412;2023-05-18T12:46:43;21.80;56.40
27795;DHT22;15176;50.844;4.412;2023-05-18T12:49:09;22.10;57.40
27795;DHT22;15176;50.844;4.412;2023-05-18T12:51:37;22.00;55.70
27795;DHT22;15176;50.844;4.412;2023-05-18T12:54:04;22.10;56.70
27795;DHT22;15176;50.844;4.412;2023-05-18T12:56:49;21.90;56.80
27795;DHT22;15176;50.844;4.412;2023-05-18T12:59:24;22.20;55.70
27795;DHT22;15176;50.844;4.412;2023-05-18T13:01:50;22.70;55.70
27795;DHT22;15176;50.844;4.412;2023-05-18T13:04:15;22.90;55.20
27795;DHT22;15176;50.844;4.412;2023-05-18T13:06:41;22.40;54.80
27795;DHT22;15176;50.844;4.412;2023-05-18T13:09:14;22.20;56.60
27795;DHT22;15176;50.844;4.412;2023-05-18T13:11:45;22.30;56.30
27795;DHT22;15176;50.844;4.412;2023-05-18T13:14:12;22.30;55.80
27795;DHT22;15176;50.844;4.412;2023-05-18T13:16:43;21.80;56.30
27795;DHT22;15176;50.844;4.412;2023-05-18T13:19:09;22.10;56.40
27795;DHT22;15176;50.844;4.412;2023-05-18T13:21:36;22.20;55.70
27795;DHT22;15176;50.844;4.412;2023-05-18T13:24:02;22.40;55.70
27795;DHT22;15176;50.844;4.412;2023-05-18T13:26:28;22.20;56.60
27795;DHT22;15176;50.844;4.412;2023-05-18T13:28:56;22.00;56.50
27795;DHT22;15176;50.844;4.412;2023-05-18T13:31:22;22.10;56.50
27795;DHT22;15176;50.844;4.412;2023-05-18T13:33:48;22.50;56.20
27795;DHT22;15176;50.844;4.412;2023-05-18T13:36:15;22.40;56.40
27795;DHT22;15176;50.844;4.412;2023-05-18T13:38:41;22.30;55.60
27795;DHT22;15176;50.844;4.412;2023-05-18T13:41:11;22.40;55.80
27795;DHT22;15176;50.844;4.412;2023-05-18T13:43:39;22.20;55.70
27795;DHT22;15176;50.844;4.412;2023-05-18T13:46:06;22.50;56.60
27795;DHT22;15176;50.844;4.412;2023-05-18T13:48:31;22.60;54.90
27795;DHT22;15176;50.844;4.412;2023-05-18T13:50:57;22.30;54.30
27795;DHT22;15176;50.844;4.412;2023-05-18T13:53:23;21.40;55.50
27795;DHT22;15176;50.844;4.412;2023-05-18T13:55:49;21.50;56.80
27795;DHT22;15176;50.844;4.412;2023-05-18T13:58:15;21.70;55.50
27795;DHT22;15176;50.844;4.412;2023-05-18T14:00:41;21.50;56.20
27795;DHT22;15176;50.844;4.412;2023-05-18T14:03:08;21.40;55.80
27795;DHT22;15176;50.844;4.412;2023-05-18T14:05:35;21.00;56.10
27795;DHT22;15176;50.844;4.412;2023-05-18T14:08:01;20.90;56.30
27795;DHT22;15176;50.844;4.412;2023-05-18T14:10:27;21.20;58.30
27795;DHT22;15176;50.844;4.412;2023-05-18T14:12:54;21.30;58.60
27795;DHT22;15176;50.844;4.412;2023-05-18T14:15:19;21.50;57.50
27795;DHT22;15176;50.844;4.412;2023-05-18T14:17:46;21.50;56.10
27795;DHT22;15176;50.844;4.412;2023-05-18T14:20:12;21.30;56.90
27795;DHT22;15176;50.844;4.412;2023-05-18T14:22:38;21.30;54.80
27795;DHT22;15176;50.844;4.412;2023-05-18T14:25:04;21.30;55.90
27795;DHT22;15176;50.844;4.412;2023-05-18T14:27:30;21.50;56.30
27795;DHT22;15176;50.844;4.412;2023-05-18T14:29:56;21.10;55.30
27795;DHT22;15176;50.844;4.412;2023-05-18T14:32:22;20.80;58.10
27795;DHT22;15176;50.844;4.412;2023-05-18T14:34:49;20.70;58.20
27795;DHT22;15176;50.844;4.412;2023-05-18T14:37:20;20.90;58.80
27795;DHT22;15176;50.844;4.412;2023-05-18T14:39:46;20.90;57.50
27795;DHT22;15176;50.844;4.412;2023-05-18T14:42:11;20.90;58.20
27795;DHT22;15176;50.844;4.412;2023-05-18T14:44:37;21.00;57.50
27795;DHT22;15176;50.844;4.412;2023-05-18T14:47:03;20.50;58.30
27795;DHT22;15176;50.844;4.412;2023-05-18T14:49:29;21.00;58.40
27795;DHT22;15176;50.844;4.412;2023-05-18T14:51:54;21.10;57.50
27795;DHT22;15176;50.844;4.412;2023-05-18T14:54:20;20.80;58.10
27795;DHT22;15176;50.844;4.412;2023-05-18T14:56:46;20.80;59.30
27795;DHT22;15176;50.844;4.412;2023-05-18T14:59:13;20.60;59.60
27795;DHT22;15176;50.844;4.412;2023-05-18T15:01:38;20.80;59.00
27795;DHT22;15176;50.844;4.412;2023-05-18T15:04:04;20.80;58.40
27795;DHT22;15176;50.844;4.412;2023-05-18T15:06:30;20.70;59.20
27795;DHT22;15176;50.844;4.412;2023-05-18T15:08:56;20.50;59.80
27795;DHT22;15176;50.844;4.412;2023-05-18T15:11:21;20.60;59.70
27795;DHT22;15176;50.844;4.412;2023-05-18T15:13:47;20.70;59.20
27795;DHT22;15176;50.844;4.412;2023-05-18T15:16:16;20.60;59.50
27795;DHT22;15176;50.844;4.412;2023-05-18T15:18:44;20.50;60.10
27795;DHT22;15176;50.844;4.412;2023-05-18T15:21:10;20.50;59.40
27795;DHT22;15176;50.844;4.412;2023-05-18T15:23:36;20.30;60.70
27795;DHT22;15176;50.844;4.412;2023-05-18T15:26:02;20.30;61.40
27795;DHT22;15176;50.844;4.412;2023-05-18T15:28:28;20.20;62.00
27795;DHT22;15176;50.844;4.412;2023-05-18T15:30:53;20.20;61.30
27795;DHT22;15176;50.844;4.412;2023-05-18T15:33:19;20.60;60.30
27795;DHT22;15176;50.844;4.412;2023-05-18T15:35:46;20.50;61.00
27795;DHT22;15176;50.844;4.412;2023-05-18T15:38:12;20.50;59.40
27795;DHT22;15176;50.844;4.412;2023-05-18T15:40:37;20.50;59.10
27795;DHT22;15176;50.844;4.412;2023-05-18T15:43:03;20.50;59.10
27795;DHT22;15176;50.844;4.412;2023-05-18T15:45:29;20.40;59.40
27795;DHT22;15176;50.844;4.412;2023-05-18T15:47:55;20.10;58.90
27795;DHT22;15176;50.844;4.412;2023-05-18T15:50:21;19.90;60.60
27795;DHT22;15176;50.844;4.412;2023-05-18T15:52:46;19.70;62.10
27795;DHT22;15176;50.844;4.412;2023-05-18T15:55:12;20.00;61.40
27795;DHT22;15176;50.844;4.412;2023-05-18T15:57:38;20.10;60.40